< < Back
Terminal Aerodrome Forecast


Current Version              Previous Versions:   1  2  3  4  5  6  7  8  9  

Terminal Aerodrome Forecast

942
FTUS42 KCHS 230500
TAFCHS
TAF
KCHS 230521Z 2306/2406 36006KT P6SM SKC
     FM231700 32008KT P6SM SKC
     FM240000 VRB03KT P6SM SKC=



Latest METAR

916
SAUS80 KWBC 230500 RRB
MTRCHS
METAR KCHS 230456Z 01007KT 10SM CLR 12/07 A3007 RMK AO2 SLP183 T01220072
402170100


USA.gov is the U.S. government's official web portal to all federal, state and local government web resources and services.